sensor_id;sensor_type;location;lat;lon;timestamp;temperature;humidity
12025;DHT22;6073;53.230;10.444;2023-07-31T00:01:55;13.60;99.90
12025;DHT22;6073;53.230;10.444;2023-07-31T00:04:21;13.60;99.90
12025;DHT22;6073;53.230;10.444;2023-07-31T00:06:46;13.70;99.90
12025;DHT22;6073;53.230;10.444;2023-07-31T00:09:12;13.60;99.90
12025;DHT22;6073;53.230;10.444;2023-07-31T00:11:37;13.70;99.90
12025;DHT22;6073;53.230;10.444;2023-07-31T00:14:03;13.60;99.90
12025;DHT22;6073;53.230;10.444;2023-07-31T00:16:29;13.70;99.90
12025;DHT22;6073;53.230;10.444;2023-07-31T00:18:54;13.70;99.90
12025;DHT22;6073;53.230;10.444;2023-07-31T00:21:20;13.70;99.90
12025;DHT22;6073;53.230;10.444;2023-07-31T00:23:45;13.70;99.90
12025;DHT22;6073;53.230;10.444;2023-07-31T00:26:11;13.80;99.90
12025;DHT22;6073;53.230;10.444;2023-07-31T00:28:36;13.80;99.90
12025;DHT22;6073;53.230;10.444;2023-07-31T00:31:02;13.80;99.90
12025;DHT22;6073;53.230;10.444;2023-07-31T00:33:30;13.80;99.90
12025;DHT22;6073;53.230;10.444;2023-07-31T00:35:56;13.90;99.90
12025;DHT22;6073;53.230;10.444;2023-07-31T00:38:21;13.90;99.90
12025;DHT22;6073;53.230;10.444;2023-07-31T00:40:47;13.90;99.90
12025;DHT22;6073;53.230;10.444;2023-07-31T00:43:12;14.00;99.90
12025;DHT22;6073;53.230;10.444;2023-07-31T00:45:38;14.00;99.90
12025;DHT22;6073;53.230;10.444;2023-07-31T00:48:04;14.00;99.90
12025;DHT22;6073;53.230;10.444;2023-07-31T00:50:31;14.00;99.90
12025;DHT22;6073;53.230;10.444;2023-07-31T00:52:58;14.00;99.90
12025;DHT22;6073;53.230;10.444;2023-07-31T00:55:23;14.00;99.90
12025;DHT22;6073;53.230;10.444;2023-07-31T00:57:49;14.00;99.90
12025;DHT22;6073;53.230;10.444;2023-07-31T01:00:17;14.00;99.90
12025;DHT22;6073;53.230;10.444;2023-07-31T01:02:42;14.00;99.90
12025;DHT22;6073;53.230;10.444;2023-07-31T01:05:08;14.00;99.90
12025;DHT22;6073;53.230;10.444;2023-07-31T01:08:09;14.00;99.90
12025;DHT22;6073;53.230;10.444;2023-07-31T01:10:49;14.10;99.90
12025;DHT22;6073;53.230;10.444;2023-07-31T01:13:17;14.10;99.90
12025;DHT22;6073;53.230;10.444;2023-07-31T01:15:43;14.10;99.90
12025;DHT22;6073;53.230;10.444;2023-07-31T01:18:08;14.10;99.90
12025;DHT22;6073;53.230;10.444;2023-07-31T01:20:36;14.10;99.90
12025;DHT22;6073;53.230;10.444;2023-07-31T01:23:33;14.10;99.90
12025;DHT22;6073;53.230;10.444;2023-07-31T01:26:12;14.10;99.90
12025;DHT22;6073;53.230;10.444;2023-07-31T01:29:10;14.10;99.90
12025;DHT22;6073;53.230;10.444;2023-07-31T01:31:33;14.10;99.90
12025;DHT22;6073;53.230;10.444;2023-07-31T01:34:03;14.10;99.90
12025;DHT22;6073;53.230;10.444;2023-07-31T01:36:30;14.20;99.90
12025;DHT22;6073;53.230;10.444;2023-07-31T01:38:59;14.20;99.90
12025;DHT22;6073;53.230;10.444;2023-07-31T01:41:25;14.20;99.90
12025;DHT22;6073;53.230;10.444;2023-07-31T01:43:51;14.20;99.90
12025;DHT22;6073;53.230;10.444;2023-07-31T01:46:16;14.20;99.90
12025;DHT22;6073;53.230;10.444;2023-07-31T01:48:42;14.20;99.90
12025;DHT22;6073;53.230;10.444;2023-07-31T01:51:07;14.20;99.90
12025;DHT22;6073;53.230;10.444;2023-07-31T01:53:33;14.20;99.90
12025;DHT22;6073;53.230;10.444;2023-07-31T01:55:59;14.20;99.90
12025;DHT22;6073;53.230;10.444;2023-07-31T01:58:24;14.20;99.90
12025;DHT22;6073;53.230;10.444;2023-07-31T02:00:50;14.20;99.90
12025;DHT22;6073;53.230;10.444;2023-07-31T02:03:15;14.20;99.90
12025;DHT22;6073;53.230;10.444;2023-07-31T02:05:48;14.20;99.90
12025;DHT22;6073;53.230;10.444;2023-07-31T02:08:14;14.20;99.90
12025;DHT22;6073;53.230;10.444;2023-07-31T02:10:40;14.10;99.90
12025;DHT22;6073;53.230;10.444;2023-07-31T02:13:05;14.10;99.90
12025;DHT22;6073;53.230;10.444;2023-07-31T02:15:31;14.10;99.90
12025;DHT22;6073;53.230;10.444;2023-07-31T02:17:57;14.10;99.90
12025;DHT22;6073;53.230;10.444;2023-07-31T02:20:22;14.10;99.90
12025;DHT22;6073;53.230;10.444;2023-07-31T02:22:48;14.10;99.90
12025;DHT22;6073;53.230;10.444;2023-07-31T02:25:13;14.10;99.90
12025;DHT22;6073;53.230;10.444;2023-07-31T02:27:39;14.10;99.90
12025;DHT22;6073;53.230;10.444;2023-07-31T02:30:05;14.20;99.90
12025;DHT22;6073;53.230;10.444;2023-07-31T02:32:31;14.20;99.90
12025;DHT22;6073;53.230;10.444;2023-07-31T02:34:56;14.20;99.90
12025;DHT22;6073;53.230;10.444;2023-07-31T02:37:22;14.20;99.90
12025;DHT22;6073;53.230;10.444;2023-07-31T02:39:47;14.20;99.90
12025;DHT22;6073;53.230;10.444;2023-07-31T02:42:13;14.20;99.90
12025;DHT22;6073;53.230;10.444;2023-07-31T02:44:39;14.30;99.90
12025;DHT22;6073;53.230;10.444;2023-07-31T02:47:05;14.40;99.90
12025;DHT22;6073;53.230;10.444;2023-07-31T02:49:30;14.30;99.90
12025;DHT22;6073;53.230;10.444;2023-07-31T02:51:56;14.30;99.90
12025;DHT22;6073;53.230;10.444;2023-07-31T02:54:21;14.40;99.90
12025;DHT22;6073;53.230;10.444;2023-07-31T02:56:47;14.40;99.90
12025;DHT22;6073;53.230;10.444;2023-07-31T02:59:13;14.40;99.90
12025;DHT22;6073;53.230;10.444;2023-07-31T03:01:38;14.30;99.90
12025;DHT22;6073;53.230;10.444;2023-07-31T03:04:04;14.40;99.90
12025;DHT22;6073;53.230;10.444;2023-07-31T03:06:30;14.40;99.90
12025;DHT22;6073;53.230;10.444;2023-07-31T03:08:55;14.40;99.90
12025;DHT22;6073;53.230;10.444;2023-07-31T03:11:21;14.40;99.90
12025;DHT22;6073;53.230;10.444;2023-07-31T03:13:47;14.40;99.90
12025;DHT22;6073;53.230;10.444;2023-07-31T03:16:12;14.40;99.90
12025;DHT22;6073;53.230;10.444;2023-07-31T03:18:38;14.40;99.90
12025;DHT22;6073;53.230;10.444;2023-07-31T03:21:04;14.40;99.90
12025;DHT22;6073;53.230;10.444;2023-07-31T03:23:30;14.50;99.90
12025;DHT22;6073;53.230;10.444;2023-07-31T03:26:00;14.50;99.90
12025;DHT22;6073;53.230;10.444;2023-07-31T03:28:26;14.50;99.90
12025;DHT22;6073;53.230;10.444;2023-07-31T03:30:52;14.50;99.90
12025;DHT22;6073;53.230;10.444;2023-07-31T03:33:18;14.50;99.90
12025;DHT22;6073;53.230;10.444;2023-07-31T03:35:44;14.60;99.90
12025;DHT22;6073;53.230;10.444;2023-07-31T03:38:09;14.60;99.90
12025;DHT22;6073;53.230;10.444;2023-07-31T03:40:35;14.60;99.90
12025;DHT22;6073;53.230;10.444;2023-07-31T03:43:01;14.70;99.90
12025;DHT22;6073;53.230;10.444;2023-07-31T03:45:26;14.70;99.90
12025;DHT22;6073;53.230;10.444;2023-07-31T03:47:52;14.70;99.90
12025;DHT22;6073;53.230;10.444;2023-07-31T03:50:17;14.70;99.90
12025;DHT22;6073;53.230;10.444;2023-07-31T03:52:43;14.70;99.90
12025;DHT22;6073;53.230;10.444;2023-07-31T03:55:08;14.80;99.90
12025;DHT22;6073;53.230;10.444;2023-07-31T03:57:34;14.80;99.90
12025;DHT22;6073;53.230;10.444;2023-07-31T03:59:59;14.80;99.90
12025;DHT22;6073;53.230;10.444;2023-07-31T04:02:25;14.80;99.90
12025;DHT22;6073;53.230;10.444;2023-07-31T04:04:50;14.80;99.90
12025;DHT22;6073;53.230;10.444;2023-07-31T04:07:16;14.80;99.90
12025;DHT22;6073;53.230;10.444;2023-07-31T04:09:41;14.80;99.90
12025;DHT22;6073;53.230;10.444;2023-07-31T04:12:07;14.80;99.90
12025;DHT22;6073;53.230;10.444;2023-07-31T04:14:33;14.80;99.90
12025;DHT22;6073;53.230;10.444;2023-07-31T04:16:58;14.80;99.90
12025;DHT22;6073;53.230;10.444;2023-07-31T04:19:24;14.80;99.90
12025;DHT22;6073;53.230;10.444;2023-07-31T04:21:49;14.80;99.90
12025;DHT22;6073;53.230;10.444;2023-07-31T04:24:15;14.80;99.90
12025;DHT22;6073;53.230;10.444;2023-07-31T04:26:41;14.80;99.90
12025;DHT22;6073;53.230;10.444;2023-07-31T04:29:06;14.80;99.90
12025;DHT22;6073;53.230;10.444;2023-07-31T04:31:33;14.80;99.90
12025;DHT22;6073;53.230;10.444;2023-07-31T04:33:59;14.80;99.90
12025;DHT22;6073;53.230;10.444;2023-07-31T04:36:24;14.80;99.90
12025;DHT22;6073;53.230;10.444;2023-07-31T04:38:50;14.80;99.90
12025;DHT22;6073;53.230;10.444;2023-07-31T04:41:15;14.80;99.90
12025;DHT22;6073;53.230;10.444;2023-07-31T04:43:41;14.90;99.90
12025;DHT22;6073;53.230;10.444;2023-07-31T04:46:06;14.90;99.90
12025;DHT22;6073;53.230;10.444;2023-07-31T04:48:32;14.90;99.90
12025;DHT22;6073;53.230;10.444;2023-07-31T04:50:57;14.90;99.90
12025;DHT22;6073;53.230;10.444;2023-07-31T04:53:23;14.80;99.90
12025;DHT22;6073;53.230;10.444;2023-07-31T04:55:48;14.90;99.90
12025;DHT22;6073;53.230;10.444;2023-07-31T04:58:14;14.90;99.90
12025;DHT22;6073;53.230;10.444;2023-07-31T05:00:40;14.90;99.90
12025;DHT22;6073;53.230;10.444;2023-07-31T05:03:05;14.80;99.90
12025;DHT22;6073;53.230;10.444;2023-07-31T05:05:31;14.90;99.90
12025;DHT22;6073;53.230;10.444;2023-07-31T05:07:56;14.90;99.90
12025;DHT22;6073;53.230;10.444;2023-07-31T05:10:22;14.80;99.90
12025;DHT22;6073;53.230;10.444;2023-07-31T05:12:48;14.90;99.90
12025;DHT22;6073;53.230;10.444;2023-07-31T05:15:13;14.90;99.90
12025;DHT22;6073;53.230;10.444;2023-07-31T05:17:39;14.90;99.90
12025;DHT22;6073;53.230;10.444;2023-07-31T05:20:05;14.90;99.90
12025;DHT22;6073;53.230;10.444;2023-07-31T05:22:30;14.90;99.90
12025;DHT22;6073;53.230;10.444;2023-07-31T05:24:56;14.90;99.90
12025;DHT22;6073;53.230;10.444;2023-07-31T05:27:21;14.90;99.90
12025;DHT22;6073;53.230;10.444;2023-07-31T05:29:47;15.00;99.90
12025;DHT22;6073;53.230;10.444;2023-07-31T05:32:13;15.00;99.90
12025;DHT22;6073;53.230;10.444;2023-07-31T05:34:38;15.10;99.90
12025;DHT22;6073;53.230;10.444;2023-07-31T05:37:04;15.10;99.90
12025;DHT22;6073;53.230;10.444;2023-07-31T05:39:30;15.20;99.90
12025;DHT22;6073;53.230;10.444;2023-07-31T05:41:55;15.30;99.90
12025;DHT22;6073;53.230;10.444;2023-07-31T05:44:21;15.30;99.90
12025;DHT22;6073;53.230;10.444;2023-07-31T05:46:46;15.30;99.90
12025;DHT22;6073;53.230;10.444;2023-07-31T05:49:12;15.30;99.90
12025;DHT22;6073;53.230;10.444;2023-07-31T05:51:37;15.30;99.90
12025;DHT22;6073;53.230;10.444;2023-07-31T05:54:03;15.40;99.90
12025;DHT22;6073;53.230;10.444;2023-07-31T05:56:28;15.50;99.90
12025;DHT22;6073;53.230;10.444;2023-07-31T05:58:54;15.50;99.90
12025;DHT22;6073;53.230;10.444;2023-07-31T06:01:19;15.60;99.90
12025;DHT22;6073;53.230;10.444;2023-07-31T06:03:46;15.50;99.90
12025;DHT22;6073;53.230;10.444;2023-07-31T06:06:12;15.50;99.90
12025;DHT22;6073;53.230;10.444;2023-07-31T06:08:38;15.60;99.90
12025;DHT22;6073;53.230;10.444;2023-07-31T06:11:05;15.70;99.90
12025;DHT22;6073;53.230;10.444;2023-07-31T06:13:31;15.80;99.90
12025;DHT22;6073;53.230;10.444;2023-07-31T06:15:56;15.80;99.90
12025;DHT22;6073;53.230;10.444;2023-07-31T06:18:22;16.00;99.90
12025;DHT22;6073;53.230;10.444;2023-07-31T06:20:47;16.00;99.90
12025;DHT22;6073;53.230;10.444;2023-07-31T06:23:19;16.10;99.90
12025;DHT22;6073;53.230;10.444;2023-07-31T06:25:44;16.20;99.90
12025;DHT22;6073;53.230;10.444;2023-07-31T06:28:10;16.20;99.90
12025;DHT22;6073;53.230;10.444;2023-07-31T06:30:35;16.30;99.90
12025;DHT22;6073;53.230;10.444;2023-07-31T06:33:01;16.30;99.90
12025;DHT22;6073;53.230;10.444;2023-07-31T06:35:26;16.30;99.90
12025;DHT22;6073;53.230;10.444;2023-07-31T06:37:51;16.40;99.90
12025;DHT22;6073;53.230;10.444;2023-07-31T06:40:17;16.30;99.90
12025;DHT22;6073;53.230;10.444;2023-07-31T06:42:42;16.40;99.90
12025;DHT22;6073;53.230;10.444;2023-07-31T06:45:11;16.40;99.90
12025;DHT22;6073;53.230;10.444;2023-07-31T06:47:37;16.40;99.90
12025;DHT22;6073;53.230;10.444;2023-07-31T06:50:02;16.50;99.90
12025;DHT22;6073;53.230;10.444;2023-07-31T06:52:28;16.60;99.90
12025;DHT22;6073;53.230;10.444;2023-07-31T06:55:14;16.70;99.90
12025;DHT22;6073;53.230;10.444;2023-07-31T06:57:40;16.80;99.90
12025;DHT22;6073;53.230;10.444;2023-07-31T07:00:07;16.90;99.90
12025;DHT22;6073;53.230;10.444;2023-07-31T07:02:33;17.00;99.90
12025;DHT22;6073;53.230;10.444;2023-07-31T07:04:58;17.00;99.90
12025;DHT22;6073;53.230;10.444;2023-07-31T07:07:23;16.90;99.90
12025;DHT22;6073;53.230;10.444;2023-07-31T07:09:49;17.00;99.90
12025;DHT22;6073;53.230;10.444;2023-07-31T07:12:14;17.00;99.90
12025;DHT22;6073;53.230;10.444;2023-07-31T07:14:40;17.10;99.90
12025;DHT22;6073;53.230;10.444;2023-07-31T07:17:05;17.10;99.90
12025;DHT22;6073;53.230;10.444;2023-07-31T07:19:31;17.10;99.90
12025;DHT22;6073;53.230;10.444;2023-07-31T07:21:57;17.20;99.90
12025;DHT22;6073;53.230;10.444;2023-07-31T07:24:22;17.20;99.90
12025;DHT22;6073;53.230;10.444;2023-07-31T07:26:47;17.10;99.90
12025;DHT22;6073;53.230;10.444;2023-07-31T07:29:13;17.00;99.90
12025;DHT22;6073;53.230;10.444;2023-07-31T07:31:38;16.90;99.90
12025;DHT22;6073;53.230;10.444;2023-07-31T07:34:04;16.80;99.90
12025;DHT22;6073;53.230;10.444;2023-07-31T07:36:30;16.70;99.90
12025;DHT22;6073;53.230;10.444;2023-07-31T07:38:57;16.70;99.90
12025;DHT22;6073;53.230;10.444;2023-07-31T07:41:23;16.60;99.90
12025;DHT22;6073;53.230;10.444;2023-07-31T07:43:48;16.60;99.90
12025;DHT22;6073;53.230;10.444;2023-07-31T07:46:14;16.60;99.90
12025;DHT22;6073;53.230;10.444;2023-07-31T07:48:39;16.60;99.90
12025;DHT22;6073;53.230;10.444;2023-07-31T07:51:05;16.50;99.90
12025;DHT22;6073;53.230;10.444;2023-07-31T07:53:30;16.50;99.90
12025;DHT22;6073;53.230;10.444;2023-07-31T07:55:56;16.60;99.90
12025;DHT22;6073;53.230;10.444;2023-07-31T07:58:21;16.60;99.90
12025;DHT22;6073;53.230;10.444;2023-07-31T08:00:51;16.70;99.90
12025;DHT22;6073;53.230;10.444;2023-07-31T08:03:16;16.60;99.90
12025;DHT22;6073;53.230;10.444;2023-07-31T08:05:43;16.70;99.90
12025;DHT22;6073;53.230;10.444;2023-07-31T08:08:14;16.80;99.90
12025;DHT22;6073;53.230;10.444;2023-07-31T08:10:41;16.80;99.90
12025;DHT22;6073;53.230;10.444;2023-07-31T08:13:07;16.90;99.90
12025;DHT22;6073;53.230;10.444;2023-07-31T08:15:32;16.90;99.90
12025;DHT22;6073;53.230;10.444;2023-07-31T08:17:58;17.00;99.90
12025;DHT22;6073;53.230;10.444;2023-07-31T08:20:23;16.90;99.90
12025;DHT22;6073;53.230;10.444;2023-07-31T08:22:49;16.90;99.90
12025;DHT22;6073;53.230;10.444;2023-07-31T08:25:14;16.90;99.90
12025;DHT22;6073;53.230;10.444;2023-07-31T08:27:43;16.80;99.90
12025;DHT22;6073;53.230;10.444;2023-07-31T08:30:09;16.70;99.90
12025;DHT22;6073;53.230;10.444;2023-07-31T08:32:35;16.80;99.90
12025;DHT22;6073;53.230;10.444;2023-07-31T08:35:00;16.80;99.90
12025;DHT22;6073;53.230;10.444;2023-07-31T08:37:25;16.80;99.90
12025;DHT22;6073;53.230;10.444;2023-07-31T08:39:51;16.80;99.90
12025;DHT22;6073;53.230;10.444;2023-07-31T08:42:17;16.80;99.90
12025;DHT22;6073;53.230;10.444;2023-07-31T08:44:43;16.80;99.90
12025;DHT22;6073;53.230;10.444;2023-07-31T08:47:10;16.80;99.90
12025;DHT22;6073;53.230;10.444;2023-07-31T08:49:38;16.80;99.90
12025;DHT22;6073;53.230;10.444;2023-07-31T08:52:04;16.80;99.90
12025;DHT22;6073;53.230;10.444;2023-07-31T08:54:30;16.70;99.90
12025;DHT22;6073;53.230;10.444;2023-07-31T08:56:57;16.70;99.90
12025;DHT22;6073;53.230;10.444;2023-07-31T08:59:24;16.60;99.90
12025;DHT22;6073;53.230;10.444;2023-07-31T09:01:52;16.60;99.90
12025;DHT22;6073;53.230;10.444;2023-07-31T09:04:19;16.60;99.90
12025;DHT22;6073;53.230;10.444;2023-07-31T09:06:47;16.60;99.90
12025;DHT22;6073;53.230;10.444;2023-07-31T09:09:13;16.60;99.90
12025;DHT22;6073;53.230;10.444;2023-07-31T09:11:39;16.70;99.90
12025;DHT22;6073;53.230;10.444;2023-07-31T09:14:08;16.70;99.90
12025;DHT22;6073;53.230;10.444;2023-07-31T09:16:34;16.80;99.90
12025;DHT22;6073;53.230;10.444;2023-07-31T09:19:00;16.80;99.90
12025;DHT22;6073;53.230;10.444;2023-07-31T09:21:30;16.90;99.90
12025;DHT22;6073;53.230;10.444;2023-07-31T09:23:56;16.90;99.90
12025;DHT22;6073;53.230;10.444;2023-07-31T09:26:35;17.00;99.90
12025;DHT22;6073;53.230;10.444;2023-07-31T09:29:03;17.00;99.90
12025;DHT22;6073;53.230;10.444;2023-07-31T09:31:42;17.10;99.90
12025;DHT22;6073;53.230;10.444;2023-07-31T09:34:08;17.10;99.90
12025;DHT22;6073;53.230;10.444;2023-07-31T09:36:42;17.10;99.90
12025;DHT22;6073;53.230;10.444;2023-07-31T09:39:13;17.00;99.90
12025;DHT22;6073;53.230;10.444;2023-07-31T09:41:41;17.00;99.90
12025;DHT22;6073;53.230;10.444;2023-07-31T09:44:07;17.00;99.90
12025;DHT22;6073;53.230;10.444;2023-07-31T09:46:35;17.10;99.90
12025;DHT22;6073;53.230;10.444;2023-07-31T09:49:11;17.20;99.90
12025;DHT22;6073;53.230;10.444;2023-07-31T09:51:38;17.20;99.90
12025;DHT22;6073;53.230;10.444;2023-07-31T09:54:09;17.20;99.90
12025;DHT22;6073;53.230;10.444;2023-07-31T09:56:37;17.30;99.90
12025;DHT22;6073;53.230;10.444;2023-07-31T09:59:04;17.40;99.90
12025;DHT22;6073;53.230;10.444;2023-07-31T10:01:30;17.60;99.90
12025;DHT22;6073;53.230;10.444;2023-07-31T10:03:57;17.60;99.90
12025;DHT22;6073;53.230;10.444;2023-07-31T10:06:24;17.60;99.90
12025;DHT22;6073;53.230;10.444;2023-07-31T10:08:51;17.60;99.90
12025;DHT22;6073;53.230;10.444;2023-07-31T10:11:18;17.50;99.90
12025;DHT22;6073;53.230;10.444;2023-07-31T10:13:44;17.40;99.90
12025;DHT22;6073;53.230;10.444;2023-07-31T10:16:10;17.40;99.90
12025;DHT22;6073;53.230;10.444;2023-07-31T10:18:37;17.40;99.90
12025;DHT22;6073;53.230;10.444;2023-07-31T10:21:04;17.60;99.90
12025;DHT22;6073;53.230;10.444;2023-07-31T10:23:30;17.80;99.90
12025;DHT22;6073;53.230;10.444;2023-07-31T10:25:57;17.80;99.90
12025;DHT22;6073;53.230;10.444;2023-07-31T10:28:24;17.90;99.90
12025;DHT22;6073;53.230;10.444;2023-07-31T10:30:50;18.00;99.90
12025;DHT22;6073;53.230;10.444;2023-07-31T10:33:17;18.00;99.90
12025;DHT22;6073;53.230;10.444;2023-07-31T10:35:43;18.00;99.90
12025;DHT22;6073;53.230;10.444;2023-07-31T10:38:12;18.10;99.90
12025;DHT22;6073;53.230;10.444;2023-07-31T10:40:38;18.30;99.90
12025;DHT22;6073;53.230;10.444;2023-07-31T10:43:05;18.30;99.90
12025;DHT22;6073;53.230;10.444;2023-07-31T10:45:32;18.30;99.90
12025;DHT22;6073;53.230;10.444;2023-07-31T10:48:02;18.10;99.90
12025;DHT22;6073;53.230;10.444;2023-07-31T10:50:30;18.00;99.90
12025;DHT22;6073;53.230;10.444;2023-07-31T10:52:58;18.00;99.90
12025;DHT22;6073;53.230;10.444;2023-07-31T10:55:31;17.90;99.90
12025;DHT22;6073;53.230;10.444;2023-07-31T10:58:19;17.90;99.90
12025;DHT22;6073;53.230;10.444;2023-07-31T11:00:44;17.80;99.90
12025;DHT22;6073;53.230;10.444;2023-07-31T11:03:13;17.70;99.90
12025;DHT22;6073;53.230;10.444;2023-07-31T11:08:21;17.70;99.90
12025;DHT22;6073;53.230;10.444;2023-07-31T11:13:26;17.90;99.90
12025;DHT22;6073;53.230;10.444;2023-07-31T11:15:51;18.00;99.90
12025;DHT22;6073;53.230;10.444;2023-07-31T11:18:17;18.00;99.90
12025;DHT22;6073;53.230;10.444;2023-07-31T11:20:43;18.00;99.90
12025;DHT22;6073;53.230;10.444;2023-07-31T11:23:10;18.10;99.90
12025;DHT22;6073;53.230;10.444;2023-07-31T11:25:37;18.10;99.90
12025;DHT22;6073;53.230;10.444;2023-07-31T11:28:04;18.20;99.90
12025;DHT22;6073;53.230;10.444;2023-07-31T11:30:30;18.30;99.90
12025;DHT22;6073;53.230;10.444;2023-07-31T11:32:56;18.20;99.90
12025;DHT22;6073;53.230;10.444;2023-07-31T11:35:22;18.30;99.90
12025;DHT22;6073;53.230;10.444;2023-07-31T11:37:47;18.40;99.90
12025;DHT22;6073;53.230;10.444;2023-07-31T11:40:14;18.40;99.90
12025;DHT22;6073;53.230;10.444;2023-07-31T11:42:40;18.50;99.90
12025;DHT22;6073;53.230;10.444;2023-07-31T11:45:06;18.40;99.90
12025;DHT22;6073;53.230;10.444;2023-07-31T11:47:33;18.30;99.90
12025;DHT22;6073;53.230;10.444;2023-07-31T11:50:03;18.50;99.90
12025;DHT22;6073;53.230;10.444;2023-07-31T11:52:29;18.60;99.90
12025;DHT22;6073;53.230;10.444;2023-07-31T11:54:56;18.70;99.90
12025;DHT22;6073;53.230;10.444;2023-07-31T11:57:23;18.70;99.90
12025;DHT22;6073;53.230;10.444;2023-07-31T11:59:49;18.40;99.90
12025;DHT22;6073;53.230;10.444;2023-07-31T12:02:16;18.30;99.90
12025;DHT22;6073;53.230;10.444;2023-07-31T12:04:42;18.40;99.90
12025;DHT22;6073;53.230;10.444;2023-07-31T12:07:08;18.30;99.90
12025;DHT22;6073;53.230;10.444;2023-07-31T12:09:33;18.30;99.90
12025;DHT22;6073;53.230;10.444;2023-07-31T12:11:59;18.30;99.90
12025;DHT22;6073;53.230;10.444;2023-07-31T12:14:29;18.30;99.90
12025;DHT22;6073;53.230;10.444;2023-07-31T12:17:00;18.20;99.90
12025;DHT22;6073;53.230;10.444;2023-07-31T12:19:26;18.30;99.90
12025;DHT22;6073;53.230;10.444;2023-07-31T12:21:59;18.30;99.90
12025;DHT22;6073;53.230;10.444;2023-07-31T12:24:26;18.30;99.90
12025;DHT22;6073;53.230;10.444;2023-07-31T12:26:52;18.30;99.90
12025;DHT22;6073;53.230;10.444;2023-07-31T12:29:18;18.30;99.90
12025;DHT22;6073;53.230;10.444;2023-07-31T12:31:44;18.20;99.90
12025;DHT22;6073;53.230;10.444;2023-07-31T12:34:20;18.20;99.90
12025;DHT22;6073;53.230;10.444;2023-07-31T12:36:48;18.30;99.90
12025;DHT22;6073;53.230;10.444;2023-07-31T12:39:14;18.30;99.90
12025;DHT22;6073;53.230;10.444;2023-07-31T12:41:40;18.40;99.90
12025;DHT22;6073;53.230;10.444;2023-07-31T12:44:06;18.40;99.90
12025;DHT22;6073;53.230;10.444;2023-07-31T12:46:31;18.30;99.90
12025;DHT22;6073;53.230;10.444;2023-07-31T12:48:57;18.20;99.90
12025;DHT22;6073;53.230;10.444;2023-07-31T12:51:22;18.20;99.90
12025;DHT22;6073;53.230;10.444;2023-07-31T12:53:48;18.30;99.90
12025;DHT22;6073;53.230;10.444;2023-07-31T12:56:13;18.30;99.90
12025;DHT22;6073;53.230;10.444;2023-07-31T12:58:39;18.30;99.90
12025;DHT22;6073;53.230;10.444;2023-07-31T13:01:04;18.30;99.90
12025;DHT22;6073;53.230;10.444;2023-07-31T13:03:31;18.20;99.90
12025;DHT22;6073;53.230;10.444;2023-07-31T13:05:56;18.20;99.90
12025;DHT22;6073;53.230;10.444;2023-07-31T13:08:22;18.10;99.90
12025;DHT22;6073;53.230;10.444;2023-07-31T13:10:47;18.10;99.90
12025;DHT22;6073;53.230;10.444;2023-07-31T13:13:13;18.10;99.90
12025;DHT22;6073;53.230;10.444;2023-07-31T13:15:38;18.00;99.90
12025;DHT22;6073;53.230;10.444;2023-07-31T13:18:04;17.90;99.90
12025;DHT22;6073;53.230;10.444;2023-07-31T13:20:29;17.90;99.90
12025;DHT22;6073;53.230;10.444;2023-07-31T13:22:55;17.80;99.90
12025;DHT22;6073;53.230;10.444;2023-07-31T13:25:20;17.80;99.90
12025;DHT22;6073;53.230;10.444;2023-07-31T13:27:46;17.80;99.90
12025;DHT22;6073;53.230;10.444;2023-07-31T13:30:11;17.90;99.90
12025;DHT22;6073;53.230;10.444;2023-07-31T13:32:37;18.00;99.90
12025;DHT22;6073;53.230;10.444;2023-07-31T13:35:06;18.00;99.90
12025;DHT22;6073;53.230;10.444;2023-07-31T13:37:32;18.00;99.90
12025;DHT22;6073;53.230;10.444;2023-07-31T13:39:57;18.00;99.90
12025;DHT22;6073;53.230;10.444;2023-07-31T13:42:23;18.00;99.90
12025;DHT22;6073;53.230;10.444;2023-07-31T13:44:49;18.00;99.90
12025;DHT22;6073;53.230;10.444;2023-07-31T13:47:14;17.90;99.90
12025;DHT22;6073;53.230;10.444;2023-07-31T13:49:40;18.00;99.90
12025;DHT22;6073;53.230;10.444;2023-07-31T13:52:07;17.90;99.90
12025;DHT22;6073;53.230;10.444;2023-07-31T13:54:32;17.90;99.90
12025;DHT22;6073;53.230;10.444;2023-07-31T13:56:58;18.00;99.90
12025;DHT22;6073;53.230;10.444;2023-07-31T13:59:23;18.00;99.90
12025;DHT22;6073;53.230;10.444;2023-07-31T14:01:50;18.00;99.90
12025;DHT22;6073;53.230;10.444;2023-07-31T14:04:15;18.00;99.90
12025;DHT22;6073;53.230;10.444;2023-07-31T14:06:42;18.00;99.90
12025;DHT22;6073;53.230;10.444;2023-07-31T14:09:08;18.00;99.90
12025;DHT22;6073;53.230;10.444;2023-07-31T14:11:34;18.00;99.90
12025;DHT22;6073;53.230;10.444;2023-07-31T14:14:00;18.00;99.90
12025;DHT22;6073;53.230;10.444;2023-07-31T14:16:27;18.00;99.90
12025;DHT22;6073;53.230;10.444;2023-07-31T14:18:53;18.00;99.90
12025;DHT22;6073;53.230;10.444;2023-07-31T14:21:20;17.90;99.90
12025;DHT22;6073;53.230;10.444;2023-07-31T14:23:45;17.90;99.90
12025;DHT22;6073;53.230;10.444;2023-07-31T14:26:11;17.90;99.90
12025;DHT22;6073;53.230;10.444;2023-07-31T14:28:37;17.90;99.90
12025;DHT22;6073;53.230;10.444;2023-07-31T14:31:03;17.90;99.90
12025;DHT22;6073;53.230;10.444;2023-07-31T14:33:28;17.90;99.90
12025;DHT22;6073;53.230;10.444;2023-07-31T14:35:54;17.90;99.90
12025;DHT22;6073;53.230;10.444;2023-07-31T14:38:19;17.90;99.90
12025;DHT22;6073;53.230;10.444;2023-07-31T14:40:45;18.00;99.90
12025;DHT22;6073;53.230;10.444;2023-07-31T14:43:11;18.00;99.90
12025;DHT22;6073;53.230;10.444;2023-07-31T14:45:36;18.20;99.90
12025;DHT22;6073;53.230;10.444;2023-07-31T14:48:02;18.10;99.90
12025;DHT22;6073;53.230;10.444;2023-07-31T14:50:28;18.00;99.90
12025;DHT22;6073;53.230;10.444;2023-07-31T14:52:54;18.10;99.90
12025;DHT22;6073;53.230;10.444;2023-07-31T14:55:19;18.00;99.90
12025;DHT22;6073;53.230;10.444;2023-07-31T14:57:45;17.90;99.90
12025;DHT22;6073;53.230;10.444;2023-07-31T15:00:11;17.90;99.90
12025;DHT22;6073;53.230;10.444;2023-07-31T15:02:40;17.80;99.90
12025;DHT22;6073;53.230;10.444;2023-07-31T15:05:06;17.90;99.90
12025;DHT22;6073;53.230;10.444;2023-07-31T15:07:33;17.90;99.90
12025;DHT22;6073;53.230;10.444;2023-07-31T15:09:59;17.90;99.90
12025;DHT22;6073;53.230;10.444;2023-07-31T15:12:27;17.90;99.90
12025;DHT22;6073;53.230;10.444;2023-07-31T15:14:53;17.90;99.90
12025;DHT22;6073;53.230;10.444;2023-07-31T15:17:19;17.90;99.90
12025;DHT22;6073;53.230;10.444;2023-07-31T15:19:44;17.80;99.90
12025;DHT22;6073;53.230;10.444;2023-07-31T15:22:10;17.90;99.90
12025;DHT22;6073;53.230;10.444;2023-07-31T15:24:35;17.90;99.90
12025;DHT22;6073;53.230;10.444;2023-07-31T15:27:04;17.90;99.90
12025;DHT22;6073;53.230;10.444;2023-07-31T15:29:30;17.90;99.90
12025;DHT22;6073;53.230;10.444;2023-07-31T15:31:55;17.90;99.90